Westrac II — WCU4545 — position and weather

sailwx.info

Track history (hours):
 
Tides and Currents Weather Stations Pressure Air Temp Water Temp Dewpoint Dewpoint Depression Visibility Wind Speed Wind Dir Waves Ship Positions

Westrac II

Owner: WESTERN TOWBOAT COMPANY, SEATTLE, WA. More information available from US FCC via Universal Licensing System and Coast Guard Vessel Documentation Center.

Last reported at 2018-Jun-24 22:09 UTC. Time now 2018-Jun-25 08:18 UTC.
Position N 47°34' W 122°21'.

Type: Tug. MMSI: 366695810.

Date/timePositionNaut miles runAvg speedWind from/ knotsBaromVisibWave heightAir tempDewpointWater temp
2018-Jun-24 22:09N 47°34' W 122°21'1 4.8
2018-Jun-24 22:00N 47°33' W 122°21'1 2.6
2018-Jun-24 21:30N 47°32' W 122°20'2 4.3
2018-Jun-24 21:01N 47°34' W 122°21'0 0.3
2018-Jun-24 20:30N 47°34' W 122°21'0 0.8
2018-Jun-24 19:59N 47°34' W 122°21'0 0.0
2018-Jun-23 23:36N 47°34' W 122°21'1 6.3
2018-Jun-23 23:30N 47°34' W 122°21'1 2.2
2018-Jun-23 23:00N 47°35' W 122°22'1 1.5
2018-Jun-23 22:30N 47°35' W 122°22'2 3.2
2018-Jun-23 22:00N 47°34' W 122°21'1 2.0
2018-Jun-23 21:30N 47°35' W 122°22'1 2.0
2018-Jun-23 21:00N 47°34' W 122°21'2 3.1
2018-Jun-23 20:30N 47°35' W 122°22'0 0.9
2018-Jun-23 20:00N 47°35' W 122°22'2 4.6
2018-Jun-23 19:30N 47°33' W 122°20'3 5.9
2018-Jun-23 19:00N 47°35' W 122°22'1 2.3
2018-Jun-23 18:30N 47°34' W 122°21'1 2.4
2018-Jun-23 18:00N 47°33' W 122°21'0 0.0
2018-Jun-23 17:30N 47°33' W 122°21'1 0.1
2018-Jun-23 02:46N 47°34' W 122°21'0 1.4
2018-Jun-23 02:30N 47°34' W 122°21'1 2.6
2018-Jun-23 02:00N 47°33' W 122°20'0 0.0
2018-Jun-23 01:30N 47°33' W 122°20'0 0.1
2018-Jun-23 01:00N 47°33' W 122°21'0 0.1
2018-Jun-23 00:30N 47°33' W 122°20'1 2.5
2018-Jun-23 00:00N 47°34' W 122°21'4 8.5
2018-Jun-22 23:30N 47°38' W 122°25'3 5.4
2018-Jun-22 23:00N 47°40' W 122°25'1 1.8
2018-Jun-22 22:30N 47°40' W 122°24'1 0.0
2018-Jun-20 21:39N 47°39' W 122°22'0 0.1
2018-Jun-20 21:30N 47°39' W 122°22'0 0.0
2018-Jun-20 21:00N 47°39' W 122°22'1 1.8
2018-Jun-20 20:30N 47°40' W 122°23'1 2.9
2018-Jun-20 20:00N 47°41' W 122°25'3 5.2
2018-Jun-20 19:30N 47°38' W 122°25'4 9.0
2018-Jun-20 19:00N 47°34' W 122°21'0 0.6
2018-Jun-20 18:30N 47°34' W 122°21'2 3.1
2018-Jun-20 18:00N 47°35' W 122°22'1 2.8
2018-Jun-20 17:30N 47°34' W 122°21'0 0.4
2018-Jun-20 17:00N 47°34' W 122°21'0 0.0
2018-Jun-20 07:00N 47°34' W 122°21'2 4.6
2018-Jun-20 06:30N 47°32' W 122°19'1 2.5
2018-Jun-20 06:00N 47°33' W 122°20'1 2.1
2018-Jun-20 05:30N 47°34' W 122°21'1 1.2
2018-Jun-20 05:00N 47°34' W 122°21'1 2.7
2018-Jun-20 04:30N 47°36' W 122°22'0 0.9
2018-Jun-20 04:00N 47°35' W 122°22'1 0.3
2018-Jun-19 22:59N 47°34' W 122°21'1 2.5
2018-Jun-19 22:29N 47°35' W 122°21'1 1.8
2018-Jun-19 22:00N 47°34' W 122°21'2 3.9
2018-Jun-19 21:30N 47°33' W 122°20'0 0.0
2018-Jun-19 21:00N 47°33' W 122°20'1 1.8
2018-Jun-19 20:30N 47°32' W 122°19'1 1.9
2018-Jun-19 20:00N 47°33' W 122°20'3 5.4
2018-Jun-19 19:30N 47°35' W 122°22'2 4.4
2018-Jun-19 19:00N 47°33' W 122°21'0 0.2
2018-Jun-19 18:30N 47°33' W 122°21'0 0.0
2018-Jun-19 18:00N 47°33' W 122°21'0 0.2
2018-Jun-19 17:30N 47°33' W 122°21'1 1.8
2018-Jun-19 17:00N 47°32' W 122°20'1 1.4
2018-Jun-19 16:30N 47°33' W 122°20'2 3.7
2018-Jun-19 16:00N 47°35' W 122°22'1 2.0
2018-Jun-19 15:30N 47°36' W 122°21'3 5.9
2018-Jun-19 15:00N 47°33' W 122°20'2 3.7
2018-Jun-19 14:30N 47°34' W 122°21'0 0.9
2018-Jun-19 14:00N 47°34' W 122°21'0 0.0
2018-Jun-19 02:57N 47°34' W 122°21'1 3.2
2018-Jun-19 02:30N 47°33' W 122°20'2 3.8
2018-Jun-19 02:00N 47°34' W 122°21'2 3.7
2018-Jun-19 01:31N 47°36' W 122°23'1 1.4
2018-Jun-19 01:00N 47°35' W 122°22'0 0.0
2018-Jun-19 00:31N 47°35' W 122°22'0 0.1
2018-Jun-19 00:01N 47°35' W 122°22'2 3.3
2018-Jun-18 23:30N 47°34' W 122°21'2 3.2
2018-Jun-18 23:01N 47°35' W 122°22'0 0.0
2018-Jun-18 22:30N 47°35' W 122°22'0 0.1
2018-Jun-18 22:01N 47°35' W 122°22'1 1.8
2018-Jun-18 21:30N 47°36' W 122°21'0 0.3
2018-Jun-18 21:00N 47°35' W 122°21'0 0.0
2018-Jun-18 20:29N 47°35' W 122°21'1 2.7
2018-Jun-18 20:00N 47°34' W 122°21'0 0.0
2018-Jun-18 19:31N 47°34' W 122°21'0 0.0
2018-Jun-18 19:00N 47°34' W 122°21'0 0.0
2018-Jun-18 18:30N 47°34' W 122°21'0 0.0
2018-Jun-18 18:00N 47°34' W 122°21'0 0.0
2018-Jun-18 17:29N 47°34' W 122°21'0 0.9
2018-Jun-18 17:01N 47°34' W 122°21'2 4.8
2018-Jun-18 16:30N 47°36' W 122°23'2 3.0
2018-Jun-18 16:00N 47°35' W 122°21'1 1.2
2018-Jun-18 15:31N 47°34' W 122°21'0 0.0
2018-Jun-18 15:00N 47°34' W 122°21'0 0.9
2018-Jun-18 14:30N 47°34' W 122°21'3 6.6
2018-Jun-18 14:00N 47°38' W 122°23'3 5.9
2018-Jun-18 13:30N 47°35' W 122°22'1 0.0
2018-Jun-17 00:03N 47°34' W 122°21'0 4.3
2018-Jun-17 00:00N 47°34' W 122°21'0 1.0
2018-Jun-16 23:30N 47°35' W 122°22'2 3.8
2018-Jun-16 23:00N 47°33' W 122°20'3 6.8
2018-Jun-16 22:30N 47°36' W 122°22'1 1.0
2018-Jun-16 22:00N 47°35' W 122°22'1 1.0
2018-Jun-16 21:30N 47°35' W 122°22'0 0.4
2018-Jun-16 21:00N 47°35' W 122°22'3 5.1
2018-Jun-16 20:30N 47°33' W 122°20'2 4.1
2018-Jun-16 20:00N 47°35' W 122°22'1 1.4
2018-Jun-16 19:30N 47°34' W 122°21'1 2.1
2018-Jun-16 18:59N 47°33' W 122°20'1 2.0
2018-Jun-16 18:30N 47°34' W 122°21'2 3.1
2018-Jun-16 18:00N 47°35' W 122°22'2 0.1
2018-Jun-16 02:47N 47°34' W 122°21'1 5.5
2018-Jun-16 02:30N 47°35' W 122°22'1 1.5
2018-Jun-16 02:00N 47°36' W 122°23'3 5.6
2018-Jun-16 01:30N 47°33' W 122°21'0 0.8
2018-Jun-16 01:00N 47°33' W 122°20'0 0.0
2018-Jun-16 00:30N 47°33' W 122°20'0 0.1
2018-Jun-16 00:00N 47°33' W 122°21'1 2.6
2018-Jun-15 23:30N 47°34' W 122°21'4 8.9
2018-Jun-15 23:00N 47°38' W 122°25'2 4.7
2018-Jun-15 22:31N 47°40' W 122°24'0 0.1
2018-Jun-15 22:00N 47°40' W 122°24'  
Track history (hours):
 
Tides and Currents Weather Stations Pressure Air Temp Water Temp Dewpoint Dewpoint Depression Visibility Wind Speed Wind Dir Waves Ship Positions

Westrac II

Owner: WESTERN TOWBOAT COMPANY, SEATTLE, WA. More information available from US FCC via Universal Licensing System and Coast Guard Vessel Documentation Center.

Last reported at 2018-Jun-24 22:09 UTC. Time now 2018-Jun-25 08:18 UTC.
Position N 47°34' W 122°21'.

Type: Tug. MMSI: 366695810.

Date/timePositionNaut miles runAvg speedWind from/ knotsBaromVisibWave heightAir tempDewpointWater temp
2018-Jun-24 22:09N 47°34' W 122°21'1 4.8
2018-Jun-24 22:00N 47°33' W 122°21'1 2.6
2018-Jun-24 21:30N 47°32' W 122°20'2 4.3
2018-Jun-24 21:01N 47°34' W 122°21'0 0.3
2018-Jun-24 20:30N 47°34' W 122°21'0 0.8
2018-Jun-24 19:59N 47°34' W 122°21'0 0.0
2018-Jun-23 23:36N 47°34' W 122°21'1 6.3
2018-Jun-23 23:30N 47°34' W 122°21'1 2.2
2018-Jun-23 23:00N 47°35' W 122°22'1 1.5
2018-Jun-23 22:30N 47°35' W 122°22'2 3.2
2018-Jun-23 22:00N 47°34' W 122°21'1 2.0
2018-Jun-23 21:30N 47°35' W 122°22'1 2.0
2018-Jun-23 21:00N 47°34' W 122°21'2 3.1
2018-Jun-23 20:30N 47°35' W 122°22'0 0.9
2018-Jun-23 20:00N 47°35' W 122°22'2 4.6
2018-Jun-23 19:30N 47°33' W 122°20'3 5.9
2018-Jun-23 19:00N 47°35' W 122°22'1 2.3
2018-Jun-23 18:30N 47°34' W 122°21'1 2.4
2018-Jun-23 18:00N 47°33' W 122°21'0 0.0
2018-Jun-23 17:30N 47°33' W 122°21'1 0.1
2018-Jun-23 02:46N 47°34' W 122°21'0 1.4
2018-Jun-23 02:30N 47°34' W 122°21'1 2.6
2018-Jun-23 02:00N 47°33' W 122°20'0 0.0
2018-Jun-23 01:30N 47°33' W 122°20'0 0.1
2018-Jun-23 01:00N 47°33' W 122°21'0 0.1
2018-Jun-23 00:30N 47°33' W 122°20'1 2.5
2018-Jun-23 00:00N 47°34' W 122°21'4 8.5
2018-Jun-22 23:30N 47°38' W 122°25'3 5.4
2018-Jun-22 23:00N 47°40' W 122°25'1 1.8
2018-Jun-22 22:30N 47°40' W 122°24'1 0.0
2018-Jun-20 21:39N 47°39' W 122°22'0 0.1
2018-Jun-20 21:30N 47°39' W 122°22'0 0.0
2018-Jun-20 21:00N 47°39' W 122°22'1 1.8
2018-Jun-20 20:30N 47°40' W 122°23'1 2.9
2018-Jun-20 20:00N 47°41' W 122°25'3 5.2
2018-Jun-20 19:30N 47°38' W 122°25'4 9.0
2018-Jun-20 19:00N 47°34' W 122°21'0 0.6
2018-Jun-20 18:30N 47°34' W 122°21'2 3.1
2018-Jun-20 18:00N 47°35' W 122°22'1 2.8
2018-Jun-20 17:30N 47°34' W 122°21'0 0.4
2018-Jun-20 17:00N 47°34' W 122°21'0 0.0
2018-Jun-20 07:00N 47°34' W 122°21'2 4.6
2018-Jun-20 06:30N 47°32' W 122°19'1 2.5
2018-Jun-20 06:00N 47°33' W 122°20'1 2.1
2018-Jun-20 05:30N 47°34' W 122°21'1 1.2
2018-Jun-20 05:00N 47°34' W 122°21'1 2.7
2018-Jun-20 04:30N 47°36' W 122°22'0 0.9
2018-Jun-20 04:00N 47°35' W 122°22'1 0.3
2018-Jun-19 22:59N 47°34' W 122°21'1 2.5
2018-Jun-19 22:29N 47°35' W 122°21'1 1.8
2018-Jun-19 22:00N 47°34' W 122°21'2 3.9
2018-Jun-19 21:30N 47°33' W 122°20'0 0.0
2018-Jun-19 21:00N 47°33' W 122°20'1 1.8
2018-Jun-19 20:30N 47°32' W 122°19'1 1.9
2018-Jun-19 20:00N 47°33' W 122°20'3 5.4
2018-Jun-19 19:30N 47°35' W 122°22'2 4.4
2018-Jun-19 19:00N 47°33' W 122°21'0 0.2
2018-Jun-19 18:30N 47°33' W 122°21'0 0.0
2018-Jun-19 18:00N 47°33' W 122°21'0 0.2
2018-Jun-19 17:30N 47°33' W 122°21'1 1.8
2018-Jun-19 17:00N 47°32' W 122°20'1 1.4
2018-Jun-19 16:30N 47°33' W 122°20'2 3.7
2018-Jun-19 16:00N 47°35' W 122°22'1 2.0
2018-Jun-19 15:30N 47°36' W 122°21'3 5.9
2018-Jun-19 15:00N 47°33' W 122°20'2 3.7
2018-Jun-19 14:30N 47°34' W 122°21'0 0.9
2018-Jun-19 14:00N 47°34' W 122°21'0 0.0
2018-Jun-19 02:57N 47°34' W 122°21'1 3.2
2018-Jun-19 02:30N 47°33' W 122°20'2 3.8
2018-Jun-19 02:00N 47°34' W 122°21'2 3.7
2018-Jun-19 01:31N 47°36' W 122°23'1 1.4
2018-Jun-19 01:00N 47°35' W 122°22'0 0.0
2018-Jun-19 00:31N 47°35' W 122°22'0 0.1
2018-Jun-19 00:01N 47°35' W 122°22'2 3.3
2018-Jun-18 23:30N 47°34' W 122°21'2 3.2
2018-Jun-18 23:01N 47°35' W 122°22'0 0.0
2018-Jun-18 22:30N 47°35' W 122°22'0 0.1
2018-Jun-18 22:01N 47°35' W 122°22'1 1.8
2018-Jun-18 21:30N 47°36' W 122°21'0 0.3
2018-Jun-18 21:00N 47°35' W 122°21'0 0.0
2018-Jun-18 20:29N 47°35' W 122°21'1 2.7
2018-Jun-18 20:00N 47°34' W 122°21'0 0.0
2018-Jun-18 19:31N 47°34' W 122°21'0 0.0
2018-Jun-18 19:00N 47°34' W 122°21'0 0.0
2018-Jun-18 18:30N 47°34' W 122°21'0 0.0
2018-Jun-18 18:00N 47°34' W 122°21'0 0.0
2018-Jun-18 17:29N 47°34' W 122°21'0 0.9
2018-Jun-18 17:01N 47°34' W 122°21'2 4.8
2018-Jun-18 16:30N 47°36' W 122°23'2 3.0
2018-Jun-18 16:00N 47°35' W 122°21'1 1.2
2018-Jun-18 15:31N 47°34' W 122°21'0 0.0
2018-Jun-18 15:00N 47°34' W 122°21'0 0.9
2018-Jun-18 14:30N 47°34' W 122°21'3 6.6
2018-Jun-18 14:00N 47°38' W 122°23'3 5.9
2018-Jun-18 13:30N 47°35' W 122°22'1 0.0
2018-Jun-17 00:03N 47°34' W 122°21'0 4.3
2018-Jun-17 00:00N 47°34' W 122°21'0 1.0
2018-Jun-16 23:30N 47°35' W 122°22'2 3.8
2018-Jun-16 23:00N 47°33' W 122°20'3 6.8
2018-Jun-16 22:30N 47°36' W 122°22'1 1.0
2018-Jun-16 22:00N 47°35' W 122°22'1 1.0
2018-Jun-16 21:30N 47°35' W 122°22'0 0.4
2018-Jun-16 21:00N 47°35' W 122°22'3 5.1
2018-Jun-16 20:30N 47°33' W 122°20'2 4.1
2018-Jun-16 20:00N 47°35' W 122°22'1 1.4
2018-Jun-16 19:30N 47°34' W 122°21'1 2.1
2018-Jun-16 18:59N 47°33' W 122°20'1 2.0
2018-Jun-16 18:30N 47°34' W 122°21'2 3.1
2018-Jun-16 18:00N 47°35' W 122°22'2 0.1
2018-Jun-16 02:47N 47°34' W 122°21'1 5.5
2018-Jun-16 02:30N 47°35' W 122°22'1 1.5
2018-Jun-16 02:00N 47°36' W 122°23'3 5.6
2018-Jun-16 01:30N 47°33' W 122°21'0 0.8
2018-Jun-16 01:00N 47°33' W 122°20'0 0.0
2018-Jun-16 00:30N 47°33' W 122°20'0 0.1
2018-Jun-16 00:00N 47°33' W 122°21'1 2.6
2018-Jun-15 23:30N 47°34' W 122°21'4 8.9
2018-Jun-15 23:00N 47°38' W 122°25'2 4.7
2018-Jun-15 22:31N 47°40' W 122°24'0 0.1
2018-Jun-15 22:00N 47°40' W 122°24'  

Dump ship's entire track history